Time;durP1;ratioP1;P1;durP2;ratioP2;P2;SDS_P1;SDS_P2;PMS_P1;PMS_P2;Temp;Humidity;BMP_temperature;BMP_pressure;BME280_temperature;BME280_humidity;BME280_pressure;Samples;Min_cycle;Max_cycle;Signal;HPM_P1;HPM_P2
2022/03/31 00:01:29;;;;;;;;;0.00;0.00;;;;;;;;2;288082898;288082898;-75
2022/03/31 00:09:45;;;;;;;;;0.00;0.00;;;;;;;;2;261077210;261077210;-75
2022/03/31 00:19:12;;;;;;;;;0.00;0.00;;;;;;;;2;288083560;288083560;-75
2022/03/31 00:27:28;;;;;;;;;0.00;0.00;;;;;;;;2;261074558;261074558;-76
2022/03/31 00:36:55;;;;;;;;;0.00;0.00;;;;;;;;2;288084048;288084048;-74
2022/03/31 00:45:21;;;;;;;;;0.00;0.00;;;;;;;;2;261077006;261077006;-74
2022/03/31 00:58:08;;;;;;;;;0.00;0.00;;;;;;;;2;288085279;288085279;-74
2022/03/31 01:06:24;;;;;;;;;0.00;0.00;;;;;;;;2;261078795;261078795;-74
2022/03/31 01:15:51;;;;;;;;;0.00;0.00;;;;;;;;2;288084108;288084108;-74
2022/03/31 01:24:08;;;;;;;;;0.00;0.00;;;;;;;;2;261078606;261078606;-74
2022/03/31 01:33:36;;;;;;;;;0.00;0.00;;;;;;;;2;288082983;288082983;-74
2022/03/31 01:41:51;;;;;;;;;0.00;0.00;;;;;;;;2;261079482;261079482;-74
2022/03/31 01:51:19;;;;;;;;;0.00;0.00;;;;;;;;2;288083499;288083499;-74
2022/03/31 01:59:35;;;;;;;;;0.00;0.00;;;;;;;;2;261079085;261079085;-74
2022/03/31 02:09:02;;;;;;;;;0.00;0.00;;;;;;;;2;288083595;288083595;-74
2022/03/31 02:17:18;;;;;;;;;0.00;0.00;;;;;;;;2;261079234;261079234;-74
2022/03/31 02:26:47;;;;;;;;;0.00;0.00;;;;;;;;2;288086193;288086193;-75
2022/03/31 02:35:02;;;;;;;;;0.00;0.00;;;;;;;;2;261076046;261076046;-75
2022/03/31 02:44:30;;;;;;;;;0.00;0.00;;;;;;;;2;288085905;288085905;-74
2022/03/31 03:02:32;;;;;;;;;0.00;0.00;;;;;;;;2;288082675;288082675;-73
2022/03/31 03:10:48;;;;;;;;;0.00;0.00;;;;;;;;2;261079158;261079158;-73
2022/03/31 03:20:15;;;;;;;;;0.00;0.00;;;;;;;;2;288083353;288083353;-73
2022/03/31 03:28:31;;;;;;;;;0.00;0.00;;;;;;;;2;261077607;261077607;-73
2022/03/31 03:37:59;;;;;;;;;0.00;0.00;;;;;;;;2;288085404;288085404;-73
2022/03/31 03:46:15;;;;;;;;;0.00;0.00;;;;;;;;2;261076536;261076536;-73
2022/03/31 03:55:42;;;;;;;;;0.00;0.00;;;;;;;;2;288084297;288084297;-73
2022/03/31 04:03:58;;;;;;;;;0.00;0.00;;;;;;;;2;261076670;261076670;-73
2022/03/31 04:13:25;;;;;;;;;0.00;0.00;;;;;;;;2;288084454;288084454;-73
2022/03/31 04:21:41;;;;;;;;;0.00;0.00;;;;;;;;2;261079854;261079854;-74
2022/03/31 04:31:08;;;;;;;;;0.00;0.00;;;;;;;;2;288083200;288083200;-74
2022/03/31 04:39:24;;;;;;;;;0.00;0.00;;;;;;;;2;261076889;261076889;-73
2022/03/31 04:48:51;;;;;;;;;0.00;0.00;;;;;;;;2;288086931;288086931;-73
2022/03/31 04:57:08;;;;;;;;;0.00;0.00;;;;;;;;2;261075156;261075156;-74
2022/03/31 05:06:36;;;;;;;;;0.00;0.00;;;;;;;;2;288084974;288084974;-72
2022/03/31 05:14:51;;;;;;;;;0.00;0.00;;;;;;;;2;261077309;261077309;-72
2022/03/31 05:24:19;;;;;;;;;0.00;0.00;;;;;;;;2;288086423;288086423;-74
2022/03/31 05:32:34;;;;;;;;;0.00;0.00;;;;;;;;2;261074419;261074419;-73
2022/03/31 05:42:02;;;;;;;;;0.00;0.00;;;;;;;;2;288081596;288081596;-74
2022/03/31 05:50:18;;;;;;;;;0.00;0.00;;;;;;;;2;261077799;261077799;-74
2022/03/31 05:59:45;;;;;;;;;0.00;0.00;;;;;;;;2;288083255;288083255;-72
2022/03/31 06:08:01;;;;;;;;;0.00;0.00;;;;;;;;2;261075555;261075555;-71
2022/03/31 06:17:28;;;;;;;;;0.00;0.00;;;;;;;;2;288083719;288083719;-72
2022/03/31 06:25:44;;;;;;;;;0.00;0.00;;;;;;;;2;261076452;261076452;-73
2022/03/31 06:35:14;;;;;;;;;0.00;0.00;;;;;;;;2;288084510;288084510;-73
2022/03/31 06:43:30;;;;;;;;;0.00;0.00;;;;;;;;2;261076731;261076731;-73
2022/03/31 06:52:58;;;;;;;;;0.00;0.00;;;;;;;;2;288081918;288081918;-73
2022/03/31 07:01:14;;;;;;;;;0.00;0.00;;;;;;;;2;261079080;261079080;-73
2022/03/31 07:10:41;;;;;;;;;0.00;0.00;;;;;;;;2;288082100;288082100;-73
2022/03/31 07:18:58;;;;;;;;;0.00;0.00;;;;;;;;2;261076082;261076082;-73
2022/03/31 07:28:26;;;;;;;;;0.00;0.00;;;;;;;;2;288080847;288080847;-73
2022/03/31 07:36:41;;;;;;;;;0.00;0.00;;;;;;;;2;261074623;261074623;-73
2022/03/31 07:46:09;;;;;;;;;0.00;0.00;;;;;;;;2;288084374;288084374;-73
2022/03/31 07:54:24;;;;;;;;;0.00;0.00;;;;;;;;2;261075184;261075184;-74
2022/03/31 08:03:53;;;;;;;;;0.00;0.00;;;;;;;;2;288085781;288085781;-73
2022/03/31 08:12:08;;;;;;;;;0.00;0.00;;;;;;;;2;261076186;261076186;-73
2022/03/31 08:21:36;;;;;;;;;0.00;0.00;;;;;;;;2;288082211;288082211;-73
2022/03/31 08:29:51;;;;;;;;;0.00;0.00;;;;;;;;2;261078978;261078978;-74
2022/03/31 08:39:19;;;;;;;;;0.00;0.00;;;;;;;;2;288083435;288083435;-73
2022/03/31 08:47:34;;;;;;;;;0.00;0.00;;;;;;;;2;261079034;261079034;-73
2022/03/31 08:57:02;;;;;;;;;0.00;0.00;;;;;;;;2;288083856;288083856;-73
2022/03/31 09:05:17;;;;;;;;;0.00;0.00;;;;;;;;2;261076190;261076190;-73
2022/03/31 09:14:45;;;;;;;;;0.00;0.00;;;;;;;;2;288083599;288083599;-73
2022/03/31 09:23:01;;;;;;;;;0.00;0.00;;;;;;;;2;261075353;261075353;-73
2022/03/31 09:32:28;;;;;;;;;0.00;0.00;;;;;;;;2;288084078;288084078;-73
2022/03/31 09:40:44;;;;;;;;;0.00;0.00;;;;;;;;2;261076680;261076680;-74
2022/03/31 09:50:12;;;;;;;;;0.00;0.00;;;;;;;;2;288087415;288087415;-73
2022/03/31 09:58:28;;;;;;;;;0.00;0.00;;;;;;;;2;261075056;261075056;-73
2022/03/31 10:07:55;;;;;;;;;0.00;0.00;;;;;;;;2;288085516;288085516;-73
2022/03/31 10:16:14;;;;;;;;;0.00;0.00;;;;;;;;2;261073736;261073736;-73
2022/03/31 10:25:42;;;;;;;;;0.00;0.00;;;;;;;;2;288081418;288081418;-72
2022/03/31 10:33:58;;;;;;;;;0.00;0.00;;;;;;;;2;261075615;261075615;-72
2022/03/31 10:43:29;;;;;;;;;0.00;0.00;;;;;;;;2;288086409;288086409;-72
2022/03/31 10:51:46;;;;;;;;;0.00;0.00;;;;;;;;2;261076609;261076609;-72
2022/03/31 11:01:13;;;;;;;;;0.00;0.00;;;;;;;;2;288083018;288083018;-73
2022/03/31 11:09:32;;;;;;;;;0.00;0.00;;;;;;;;2;261078848;261078848;-72
2022/03/31 11:19:04;;;;;;;;;0.00;0.00;;;;;;;;2;288082942;288082942;-72
2022/03/31 11:27:40;;;;;;;;;0.00;0.00;;;;;;;;2;261077666;261077666;-73
2022/03/31 11:37:16;;;;;;;;;0.00;0.00;;;;;;;;2;288086270;288086270;-72
2022/03/31 11:45:36;;;;;;;;;0.00;0.00;;;;;;;;2;261074945;261074945;-72
2022/03/31 11:55:06;;;;;;;;;0.00;0.00;;;;;;;;2;288083354;288083354;-72
2022/03/31 12:03:21;;;;;;;;;0.00;0.00;;;;;;;;2;261074313;261074313;-72
2022/03/31 12:12:53;;;;;;;;;0.00;0.00;;;;;;;;2;288085920;288085920;-73
2022/03/31 12:21:09;;;;;;;;;0.00;0.00;;;;;;;;2;261075795;261075795;-73
2022/03/31 12:30:37;;;;;;;;;0.00;0.00;;;;;;;;2;288082480;288082480;-72
2022/03/31 12:38:56;;;;;;;;;0.00;0.00;;;;;;;;2;261076075;261076075;-73
2022/03/31 12:48:26;;;;;;;;;0.00;0.00;;;;;;;;2;288079837;288079837;-72
2022/03/31 12:56:45;;;;;;;;;0.00;0.00;;;;;;;;2;261077394;261077394;-73
2022/03/31 13:06:16;;;;;;;;;0.00;0.00;;;;;;;;2;288083134;288083134;-71
2022/03/31 13:14:32;;;;;;;;;0.00;0.00;;;;;;;;2;261074328;261074328;-71
2022/03/31 13:24:01;;;;;;;;;0.00;0.00;;;;;;;;2;288082014;288082014;-72
2022/03/31 13:32:17;;;;;;;;;0.00;0.00;;;;;;;;2;261076638;261076638;-73
2022/03/31 13:41:48;;;;;;;;;0.00;0.00;;;;;;;;2;288084422;288084422;-72
2022/03/31 13:50:04;;;;;;;;;0.00;0.00;;;;;;;;2;261075393;261075393;-72
2022/03/31 14:08:06;;;;;;;;;0.00;0.00;;;;;;;;2;261076852;261076852;-71
2022/03/31 14:17:33;;;;;;;;;0.00;0.00;;;;;;;;2;288082620;288082620;-73
2022/03/31 14:25:48;;;;;;;;;0.00;0.00;;;;;;;;2;261076364;261076364;-72
2022/03/31 14:35:17;;;;;;;;;0.00;0.00;;;;;;;;2;288084870;288084870;-72
2022/03/31 14:43:33;;;;;;;;;0.00;0.00;;;;;;;;2;261076461;261076461;-72
2022/03/31 14:53:01;;;;;;;;;0.00;0.00;;;;;;;;2;288084763;288084763;-72
2022/03/31 15:01:17;;;;;;;;;0.00;0.00;;;;;;;;2;261073904;261073904;-72
2022/03/31 15:19:20;;;;;;;;;0.00;0.00;;;;;;;;2;261077383;261077383;-72
2022/03/31 15:28:47;;;;;;;;;0.00;0.00;;;;;;;;2;288081898;288081898;-72
2022/03/31 15:37:03;;;;;;;;;0.00;0.00;;;;;;;;2;261076421;261076421;-72
2022/03/31 15:46:31;;;;;;;;;0.00;0.00;;;;;;;;2;288084436;288084436;-74
2022/03/31 15:54:47;;;;;;;;;0.00;0.00;;;;;;;;2;261074550;261074550;-72
2022/03/31 16:04:14;;;;;;;;;0.00;0.00;;;;;;;;2;288084210;288084210;-73
2022/03/31 16:12:30;;;;;;;;;0.00;0.00;;;;;;;;2;261077733;261077733;-72
2022/03/31 16:21:58;;;;;;;;;0.00;0.00;;;;;;;;2;288084164;288084164;-72
2022/03/31 16:30:13;;;;;;;;;0.00;0.00;;;;;;;;2;261079224;261079224;-72
2022/03/31 16:39:41;;;;;;;;;0.00;0.00;;;;;;;;2;288084242;288084242;-72
2022/03/31 16:47:56;;;;;;;;;0.00;0.00;;;;;;;;2;261074985;261074985;-73
2022/03/31 16:57:24;;;;;;;;;0.00;0.00;;;;;;;;2;288085782;288085782;-73
2022/03/31 17:05:39;;;;;;;;;0.00;0.00;;;;;;;;2;261073795;261073795;-72
2022/03/31 17:15:07;;;;;;;;;0.00;0.00;;;;;;;;2;288084824;288084824;-72
2022/03/31 17:23:23;;;;;;;;;0.00;0.00;;;;;;;;2;261076265;261076265;-72
2022/03/31 17:32:50;;;;;;;;;0.00;0.00;;;;;;;;2;288086450;288086450;-73
2022/03/31 17:41:07;;;;;;;;;0.00;0.00;;;;;;;;2;261078825;261078825;-73
2022/03/31 17:50:34;;;;;;;;;0.00;0.00;;;;;;;;2;288084477;288084477;-73
2022/03/31 17:58:50;;;;;;;;;0.00;0.00;;;;;;;;2;261075026;261075026;-76
2022/03/31 18:08:18;;;;;;;;;0.00;0.00;;;;;;;;2;288084180;288084180;-74
2022/03/31 18:16:35;;;;;;;;;0.00;0.00;;;;;;;;2;261076173;261076173;-74
2022/03/31 18:26:03;;;;;;;;;0.00;0.00;;;;;;;;2;288081204;288081204;-73
2022/03/31 18:34:19;;;;;;;;;0.00;0.00;;;;;;;;2;261075773;261075773;-73
2022/03/31 18:43:46;;;;;;;;;0.00;0.00;;;;;;;;2;288085189;288085189;-73
2022/03/31 18:52:02;;;;;;;;;0.00;0.00;;;;;;;;2;261077025;261077025;-75
2022/03/31 19:01:30;;;;;;;;;0.00;0.00;;;;;;;;2;288082722;288082722;-74
2022/03/31 19:09:46;;;;;;;;;0.00;0.00;;;;;;;;2;261077911;261077911;-75
2022/03/31 19:19:13;;;;;;;;;0.00;0.00;;;;;;;;2;288082833;288082833;-74
2022/03/31 19:27:29;;;;;;;;;0.00;0.00;;;;;;;;2;261076877;261076877;-75
2022/03/31 19:36:56;;;;;;;;;0.00;0.00;;;;;;;;2;288083070;288083070;-75
2022/03/31 19:45:12;;;;;;;;;0.00;0.00;;;;;;;;2;261076563;261076563;-75
2022/03/31 19:54:40;;;;;;;;;0.00;0.00;;;;;;;;2;288082572;288082572;-75
2022/03/31 20:02:55;;;;;;;;;0.00;0.00;;;;;;;;2;261077674;261077674;-74
2022/03/31 20:12:23;;;;;;;;;0.00;0.00;;;;;;;;2;288085887;288085887;-74
2022/03/31 20:20:39;;;;;;;;;0.00;0.00;;;;;;;;2;261079505;261079505;-76
2022/03/31 20:30:08;;;;;;;;;0.00;0.00;;;;;;;;2;288085992;288085992;-75
2022/03/31 20:38:24;;;;;;;;;0.00;0.00;;;;;;;;2;261076161;261076161;-75
2022/03/31 20:47:51;;;;;;;;;0.00;0.00;;;;;;;;2;288083225;288083225;-75
2022/03/31 20:56:06;;;;;;;;;0.00;0.00;;;;;;;;2;261074888;261074888;-75
2022/03/31 21:05:34;;;;;;;;;0.00;0.00;;;;;;;;2;288083780;288083780;-74
2022/03/31 21:13:49;;;;;;;;;0.00;0.00;;;;;;;;2;261076743;261076743;-75
2022/03/31 21:23:17;;;;;;;;;0.00;0.00;;;;;;;;2;288083544;288083544;-75
2022/03/31 21:31:33;;;;;;;;;0.00;0.00;;;;;;;;2;261076214;261076214;-74
2022/03/31 21:41:00;;;;;;;;;0.00;0.00;;;;;;;;2;288082685;288082685;-74
2022/03/31 21:49:16;;;;;;;;;0.00;0.00;;;;;;;;2;261076846;261076846;-75
2022/03/31 21:58:43;;;;;;;;;0.00;0.00;;;;;;;;2;288082868;288082868;-74
2022/03/31 22:07:00;;;;;;;;;0.00;0.00;;;;;;;;2;261077909;261077909;-75
2022/03/31 22:16:28;;;;;;;;;0.00;0.00;;;;;;;;2;288082462;288082462;-76
2022/03/31 22:24:44;;;;;;;;;0.00;0.00;;;;;;;;2;261079538;261079538;-75
2022/03/31 22:34:13;;;;;;;;;0.00;0.00;;;;;;;;2;288082936;288082936;-77
2022/03/31 22:42:29;;;;;;;;;0.00;0.00;;;;;;;;2;261079113;261079113;-77
2022/03/31 22:51:56;;;;;;;;;0.00;0.00;;;;;;;;2;288082383;288082383;-77
2022/03/31 23:00:13;;;;;;;;;0.00;0.00;;;;;;;;2;261076000;261076000;-74
2022/03/31 23:09:40;;;;;;;;;0.00;0.00;;;;;;;;2;288084678;288084678;-75
2022/03/31 23:17:56;;;;;;;;;0.00;0.00;;;;;;;;2;261074942;261074942;-76
2022/03/31 23:27:23;;;;;;;;;0.00;0.00;;;;;;;;2;288080584;288080584;-77
2022/03/31 23:35:39;;;;;;;;;0.00;0.00;;;;;;;;2;261078172;261078172;-79
2022/03/31 23:45:13;;;;;;;;;0.00;0.00;;;;;;;;2;288085591;288085591;-76
2022/03/31 23:53:28;;;;;;;;;0.00;0.00;;;;;;;;2;261075884;261075884;-76
